sensor_id;sensor_type;location;lat;lon;timestamp;P1;durP1;ratioP1;P2;durP2;ratioP2
13985;SDS011;7067;51.832;8.296;2022-10-30T00:01:55;21.58;;;9.85;;
13985;SDS011;7067;51.832;8.296;2022-10-30T00:04:20;14.00;;;9.75;;
13985;SDS011;7067;51.832;8.296;2022-10-30T00:06:45;17.08;;;10.05;;
13985;SDS011;7067;51.832;8.296;2022-10-30T00:09:12;21.27;;;10.13;;
13985;SDS011;7067;51.832;8.296;2022-10-30T00:11:38;17.50;;;11.38;;
13985;SDS011;7067;51.832;8.296;2022-10-30T00:14:04;18.23;;;9.80;;
13985;SDS011;7067;51.832;8.296;2022-10-30T00:16:29;15.43;;;10.18;;
13985;SDS011;7067;51.832;8.296;2022-10-30T00:18:55;19.13;;;11.50;;
13985;SDS011;7067;51.832;8.296;2022-10-30T00:21:20;21.13;;;11.27;;
13985;SDS011;7067;51.832;8.296;2022-10-30T00:23:46;17.67;;;11.05;;
13985;SDS011;7067;51.832;8.296;2022-10-30T00:26:12;15.18;;;10.98;;
13985;SDS011;7067;51.832;8.296;2022-10-30T00:28:38;17.33;;;10.30;;
13985;SDS011;7067;51.832;8.296;2022-10-30T00:31:03;17.33;;;10.38;;
13985;SDS011;7067;51.832;8.296;2022-10-30T00:33:29;21.38;;;10.50;;
13985;SDS011;7067;51.832;8.296;2022-10-30T00:35:55;18.15;;;10.93;;
13985;SDS011;7067;51.832;8.296;2022-10-30T00:38:20;15.38;;;9.98;;
13985;SDS011;7067;51.832;8.296;2022-10-30T00:40:46;14.07;;;10.95;;
13985;SDS011;7067;51.832;8.296;2022-10-30T00:43:25;21.65;;;10.85;;
13985;SDS011;7067;51.832;8.296;2022-10-30T00:45:55;15.02;;;9.50;;
13985;SDS011;7067;51.832;8.296;2022-10-30T00:48:23;22.33;;;10.57;;
13985;SDS011;7067;51.832;8.296;2022-10-30T00:50:50;20.17;;;9.73;;
13985;SDS011;7067;51.832;8.296;2022-10-30T00:53:16;16.08;;;10.02;;
13985;SDS011;7067;51.832;8.296;2022-10-30T00:55:53;20.00;;;10.07;;
13985;SDS011;7067;51.832;8.296;2022-10-30T00:58:22;19.98;;;9.95;;
13985;SDS011;7067;51.832;8.296;2022-10-30T01:00:50;14.18;;;10.13;;
13985;SDS011;7067;51.832;8.296;2022-10-30T01:03:18;13.52;;;10.73;;
13985;SDS011;7067;51.832;8.296;2022-10-30T01:05:45;14.05;;;10.05;;
13985;SDS011;7067;51.832;8.296;2022-10-30T01:08:13;18.75;;;9.70;;
13985;SDS011;7067;51.832;8.296;2022-10-30T01:10:38;20.00;;;10.13;;
13985;SDS011;7067;51.832;8.296;2022-10-30T01:13:03;16.80;;;9.77;;
13985;SDS011;7067;51.832;8.296;2022-10-30T01:15:39;10.95;;;8.98;;
13985;SDS011;7067;51.832;8.296;2022-10-30T01:31:41;16.63;;;8.52;;
13985;SDS011;7067;51.832;8.296;2022-10-30T01:34:19;13.38;;;9.57;;
13985;SDS011;7067;51.832;8.296;2022-10-30T01:36:50;17.55;;;9.98;;
13985;SDS011;7067;51.832;8.296;2022-10-30T01:39:21;13.43;;;9.30;;
13985;SDS011;7067;51.832;8.296;2022-10-30T01:41:49;21.00;;;8.90;;
13985;SDS011;7067;51.832;8.296;2022-10-30T01:44:19;19.48;;;9.82;;
13985;SDS011;7067;51.832;8.296;2022-10-30T01:47:07;14.82;;;10.45;;
13985;SDS011;7067;51.832;8.296;2022-10-30T01:49:54;16.75;;;10.52;;
13985;SDS011;7067;51.832;8.296;2022-10-30T01:58:02;12.00;;;9.02;;
13985;SDS011;7067;51.832;8.296;2022-10-30T02:00:31;22.15;;;10.75;;
13985;SDS011;7067;51.832;8.296;2022-10-30T02:02:57;16.02;;;10.75;;
13985;SDS011;7067;51.832;8.296;2022-10-30T02:05:35;19.15;;;10.65;;
13985;SDS011;7067;51.832;8.296;2022-10-30T02:08:03;13.48;;;10.25;;
13985;SDS011;7067;51.832;8.296;2022-10-30T02:10:29;17.85;;;10.52;;
13985;SDS011;7067;51.832;8.296;2022-10-30T02:12:55;18.40;;;10.55;;
13985;SDS011;7067;51.832;8.296;2022-10-30T02:15:21;17.38;;;10.38;;
13985;SDS011;7067;51.832;8.296;2022-10-30T02:17:46;19.92;;;11.25;;
13985;SDS011;7067;51.832;8.296;2022-10-30T02:20:15;14.85;;;10.40;;
13985;SDS011;7067;51.832;8.296;2022-10-30T02:22:41;17.40;;;9.43;;
13985;SDS011;7067;51.832;8.296;2022-10-30T02:25:07;15.45;;;10.65;;
13985;SDS011;7067;51.832;8.296;2022-10-30T02:27:33;16.73;;;9.95;;
13985;SDS011;7067;51.832;8.296;2022-10-30T02:29:58;16.85;;;10.70;;
13985;SDS011;7067;51.832;8.296;2022-10-30T02:32:24;23.48;;;11.10;;
13985;SDS011;7067;51.832;8.296;2022-10-30T02:34:50;20.73;;;10.55;;
13985;SDS011;7067;51.832;8.296;2022-10-30T02:37:15;19.77;;;9.93;;
13985;SDS011;7067;51.832;8.296;2022-10-30T02:39:40;15.98;;;10.43;;
13985;SDS011;7067;51.832;8.296;2022-10-30T02:42:05;21.05;;;11.15;;
13985;SDS011;7067;51.832;8.296;2022-10-30T02:44:31;19.42;;;10.90;;
13985;SDS011;7067;51.832;8.296;2022-10-30T02:46:56;20.70;;;11.52;;
13985;SDS011;7067;51.832;8.296;2022-10-30T02:49:22;16.02;;;10.45;;
13985;SDS011;7067;51.832;8.296;2022-10-30T02:51:47;15.32;;;9.90;;
13985;SDS011;7067;51.832;8.296;2022-10-30T02:54:12;18.52;;;11.10;;
13985;SDS011;7067;51.832;8.296;2022-10-30T02:56:40;23.40;;;10.68;;
13985;SDS011;7067;51.832;8.296;2022-10-30T02:59:06;15.25;;;9.77;;
13985;SDS011;7067;51.832;8.296;2022-10-30T03:01:31;16.23;;;10.77;;
13985;SDS011;7067;51.832;8.296;2022-10-30T03:03:56;18.65;;;10.32;;
13985;SDS011;7067;51.832;8.296;2022-10-30T03:06:22;15.10;;;10.63;;
13985;SDS011;7067;51.832;8.296;2022-10-30T03:08:47;18.13;;;9.80;;
13985;SDS011;7067;51.832;8.296;2022-10-30T03:11:14;16.92;;;10.73;;
13985;SDS011;7067;51.832;8.296;2022-10-30T03:13:41;17.58;;;9.98;;
13985;SDS011;7067;51.832;8.296;2022-10-30T03:16:40;14.27;;;10.63;;
13985;SDS011;7067;51.832;8.296;2022-10-30T03:19:00;19.58;;;10.90;;
13985;SDS011;7067;51.832;8.296;2022-10-30T03:21:26;21.05;;;10.63;;
13985;SDS011;7067;51.832;8.296;2022-10-30T03:23:52;20.55;;;10.95;;
13985;SDS011;7067;51.832;8.296;2022-10-30T03:26:18;13.15;;;10.95;;
13985;SDS011;7067;51.832;8.296;2022-10-30T03:28:44;14.68;;;10.80;;
13985;SDS011;7067;51.832;8.296;2022-10-30T03:31:10;17.45;;;10.35;;
13985;SDS011;7067;51.832;8.296;2022-10-30T03:33:37;14.52;;;10.60;;
13985;SDS011;7067;51.832;8.296;2022-10-30T03:36:03;16.55;;;10.18;;
13985;SDS011;7067;51.832;8.296;2022-10-30T03:38:30;19.00;;;10.68;;
13985;SDS011;7067;51.832;8.296;2022-10-30T03:40:55;18.92;;;11.48;;
13985;SDS011;7067;51.832;8.296;2022-10-30T03:43:21;14.93;;;9.93;;
13985;SDS011;7067;51.832;8.296;2022-10-30T03:45:53;14.45;;;9.60;;
13985;SDS011;7067;51.832;8.296;2022-10-30T03:48:20;20.15;;;10.30;;
13985;SDS011;7067;51.832;8.296;2022-10-30T03:50:46;16.27;;;10.30;;
13985;SDS011;7067;51.832;8.296;2022-10-30T03:53:13;14.52;;;11.00;;
13985;SDS011;7067;51.832;8.296;2022-10-30T03:55:39;26.33;;;11.38;;
13985;SDS011;7067;51.832;8.296;2022-10-30T03:58:05;22.67;;;12.35;;
13985;SDS011;7067;51.832;8.296;2022-10-30T04:00:31;16.65;;;10.77;;
13985;SDS011;7067;51.832;8.296;2022-10-30T04:02:56;15.63;;;9.70;;
13985;SDS011;7067;51.832;8.296;2022-10-30T04:05:22;17.42;;;10.27;;
13985;SDS011;7067;51.832;8.296;2022-10-30T04:07:53;16.75;;;10.45;;
13985;SDS011;7067;51.832;8.296;2022-10-30T04:10:19;15.45;;;10.45;;
13985;SDS011;7067;51.832;8.296;2022-10-30T04:12:45;19.30;;;9.80;;
13985;SDS011;7067;51.832;8.296;2022-10-30T04:15:10;11.63;;;9.68;;
13985;SDS011;7067;51.832;8.296;2022-10-30T04:17:35;25.05;;;11.18;;
13985;SDS011;7067;51.832;8.296;2022-10-30T04:20:01;16.70;;;10.85;;
13985;SDS011;7067;51.832;8.296;2022-10-30T04:22:26;19.50;;;10.32;;
13985;SDS011;7067;51.832;8.296;2022-10-30T04:24:51;15.30;;;10.20;;
13985;SDS011;7067;51.832;8.296;2022-10-30T04:27:17;17.85;;;11.18;;
13985;SDS011;7067;51.832;8.296;2022-10-30T04:29:44;13.00;;;9.57;;
13985;SDS011;7067;51.832;8.296;2022-10-30T04:32:10;17.15;;;10.20;;
13985;SDS011;7067;51.832;8.296;2022-10-30T04:34:36;16.77;;;9.57;;
13985;SDS011;7067;51.832;8.296;2022-10-30T04:37:03;21.75;;;9.60;;
13985;SDS011;7067;51.832;8.296;2022-10-30T04:39:31;20.83;;;10.13;;
13985;SDS011;7067;51.832;8.296;2022-10-30T04:41:57;16.52;;;9.73;;
13985;SDS011;7067;51.832;8.296;2022-10-30T04:44:22;17.77;;;10.30;;
13985;SDS011;7067;51.832;8.296;2022-10-30T04:46:47;14.75;;;10.35;;
13985;SDS011;7067;51.832;8.296;2022-10-30T04:49:13;23.25;;;10.48;;
13985;SDS011;7067;51.832;8.296;2022-10-30T04:51:38;13.57;;;9.95;;
13985;SDS011;7067;51.832;8.296;2022-10-30T04:54:03;15.15;;;9.77;;
13985;SDS011;7067;51.832;8.296;2022-10-30T04:56:29;24.55;;;10.48;;
13985;SDS011;7067;51.832;8.296;2022-10-30T04:58:56;15.13;;;11.00;;
13985;SDS011;7067;51.832;8.296;2022-10-30T05:01:22;17.10;;;9.93;;
13985;SDS011;7067;51.832;8.296;2022-10-30T05:03:47;19.48;;;11.05;;
13985;SDS011;7067;51.832;8.296;2022-10-30T05:06:22;20.27;;;9.30;;
13985;SDS011;7067;51.832;8.296;2022-10-30T05:08:49;19.08;;;10.07;;
13985;SDS011;7067;51.832;8.296;2022-10-30T05:11:15;12.63;;;10.30;;
13985;SDS011;7067;51.832;8.296;2022-10-30T05:13:40;21.08;;;10.85;;
13985;SDS011;7067;51.832;8.296;2022-10-30T05:16:06;16.23;;;11.10;;
13985;SDS011;7067;51.832;8.296;2022-10-30T05:18:31;20.38;;;10.20;;
13985;SDS011;7067;51.832;8.296;2022-10-30T05:20:57;19.48;;;11.70;;
13985;SDS011;7067;51.832;8.296;2022-10-30T05:23:22;13.60;;;9.73;;
13985;SDS011;7067;51.832;8.296;2022-10-30T05:25:47;17.27;;;10.95;;
13985;SDS011;7067;51.832;8.296;2022-10-30T05:28:13;14.90;;;10.50;;
13985;SDS011;7067;51.832;8.296;2022-10-30T05:30:38;17.98;;;10.63;;
13985;SDS011;7067;51.832;8.296;2022-10-30T05:33:05;14.88;;;10.20;;
13985;SDS011;7067;51.832;8.296;2022-10-30T05:35:31;15.90;;;10.98;;
13985;SDS011;7067;51.832;8.296;2022-10-30T05:37:58;19.83;;;11.82;;
13985;SDS011;7067;51.832;8.296;2022-10-30T05:40:24;22.13;;;10.52;;
13985;SDS011;7067;51.832;8.296;2022-10-30T05:42:49;22.35;;;11.45;;
13985;SDS011;7067;51.832;8.296;2022-10-30T05:45:15;18.27;;;10.65;;
13985;SDS011;7067;51.832;8.296;2022-10-30T05:47:41;16.83;;;10.27;;
13985;SDS011;7067;51.832;8.296;2022-10-30T05:50:07;20.20;;;10.32;;
13985;SDS011;7067;51.832;8.296;2022-10-30T05:52:32;15.98;;;11.00;;
13985;SDS011;7067;51.832;8.296;2022-10-30T05:54:58;17.02;;;10.57;;
13985;SDS011;7067;51.832;8.296;2022-10-30T05:57:23;18.27;;;11.35;;
13985;SDS011;7067;51.832;8.296;2022-10-30T05:59:51;14.73;;;10.75;;
13985;SDS011;7067;51.832;8.296;2022-10-30T06:02:17;12.63;;;9.60;;
13985;SDS011;7067;51.832;8.296;2022-10-30T06:04:42;18.27;;;9.75;;
13985;SDS011;7067;51.832;8.296;2022-10-30T06:07:08;21.05;;;10.82;;
13985;SDS011;7067;51.832;8.296;2022-10-30T06:09:34;24.80;;;10.05;;
13985;SDS011;7067;51.832;8.296;2022-10-30T06:12:01;17.05;;;9.48;;
13985;SDS011;7067;51.832;8.296;2022-10-30T06:14:26;19.50;;;10.35;;
13985;SDS011;7067;51.832;8.296;2022-10-30T06:16:51;15.07;;;9.55;;
13985;SDS011;7067;51.832;8.296;2022-10-30T06:19:17;16.60;;;10.75;;
13985;SDS011;7067;51.832;8.296;2022-10-30T06:21:42;16.45;;;11.55;;
13985;SDS011;7067;51.832;8.296;2022-10-30T06:24:07;18.83;;;10.70;;
13985;SDS011;7067;51.832;8.296;2022-10-30T06:26:33;14.10;;;10.38;;
13985;SDS011;7067;51.832;8.296;2022-10-30T06:28:58;19.17;;;10.57;;
13985;SDS011;7067;51.832;8.296;2022-10-30T06:31:23;22.17;;;10.57;;
13985;SDS011;7067;51.832;8.296;2022-10-30T06:33:49;14.68;;;10.25;;
13985;SDS011;7067;51.832;8.296;2022-10-30T06:36:14;23.88;;;10.85;;
13985;SDS011;7067;51.832;8.296;2022-10-30T06:38:41;19.55;;;10.52;;
13985;SDS011;7067;51.832;8.296;2022-10-30T06:41:07;15.60;;;10.27;;
13985;SDS011;7067;51.832;8.296;2022-10-30T06:43:32;15.60;;;10.32;;
13985;SDS011;7067;51.832;8.296;2022-10-30T06:45:58;15.32;;;10.10;;
13985;SDS011;7067;51.832;8.296;2022-10-30T06:48:23;17.08;;;11.05;;
13985;SDS011;7067;51.832;8.296;2022-10-30T06:50:55;17.48;;;11.07;;
13985;SDS011;7067;51.832;8.296;2022-10-30T06:53:21;15.48;;;10.00;;
13985;SDS011;7067;51.832;8.296;2022-10-30T06:55:56;21.52;;;12.18;;
13985;SDS011;7067;51.832;8.296;2022-10-30T06:58:23;15.13;;;10.48;;
13985;SDS011;7067;51.832;8.296;2022-10-30T07:00:48;16.23;;;10.70;;
13985;SDS011;7067;51.832;8.296;2022-10-30T07:03:14;11.93;;;9.85;;
13985;SDS011;7067;51.832;8.296;2022-10-30T07:05:39;12.70;;;10.43;;
13985;SDS011;7067;51.832;8.296;2022-10-30T07:08:05;15.88;;;10.02;;
13985;SDS011;7067;51.832;8.296;2022-10-30T07:10:30;17.45;;;10.93;;
13985;SDS011;7067;51.832;8.296;2022-10-30T07:12:55;18.80;;;10.75;;
13985;SDS011;7067;51.832;8.296;2022-10-30T07:15:22;17.58;;;11.35;;
13985;SDS011;7067;51.832;8.296;2022-10-30T07:17:58;18.08;;;10.20;;
13985;SDS011;7067;51.832;8.296;2022-10-30T07:20:25;14.48;;;10.35;;
13985;SDS011;7067;51.832;8.296;2022-10-30T07:22:51;15.70;;;10.00;;
13985;SDS011;7067;51.832;8.296;2022-10-30T07:25:17;16.67;;;10.88;;
13985;SDS011;7067;51.832;8.296;2022-10-30T07:30:12;24.13;;;15.03;;
13985;SDS011;7067;51.832;8.296;2022-10-30T07:32:38;23.90;;;15.38;;
13985;SDS011;7067;51.832;8.296;2022-10-30T07:35:04;23.20;;;15.25;;
13985;SDS011;7067;51.832;8.296;2022-10-30T07:37:30;24.73;;;14.77;;
13985;SDS011;7067;51.832;8.296;2022-10-30T07:39:55;24.42;;;15.10;;
13985;SDS011;7067;51.832;8.296;2022-10-30T07:42:21;19.20;;;13.38;;
13985;SDS011;7067;51.832;8.296;2022-10-30T07:44:46;21.23;;;12.90;;
13985;SDS011;7067;51.832;8.296;2022-10-30T07:47:11;21.13;;;13.70;;
13985;SDS011;7067;51.832;8.296;2022-10-30T07:49:37;19.83;;;11.50;;
13985;SDS011;7067;51.832;8.296;2022-10-30T07:52:02;18.00;;;11.43;;
13985;SDS011;7067;51.832;8.296;2022-10-30T07:54:28;20.38;;;12.10;;
13985;SDS011;7067;51.832;8.296;2022-10-30T07:56:53;20.90;;;12.07;;
13985;SDS011;7067;51.832;8.296;2022-10-30T07:59:18;17.83;;;12.93;;
13985;SDS011;7067;51.832;8.296;2022-10-30T08:01:44;11.13;;;9.98;;
13985;SDS011;7067;51.832;8.296;2022-10-30T08:04:09;15.48;;;10.75;;
13985;SDS011;7067;51.832;8.296;2022-10-30T08:06:37;17.70;;;10.85;;
13985;SDS011;7067;51.832;8.296;2022-10-30T08:09:03;14.63;;;10.00;;
13985;SDS011;7067;51.832;8.296;2022-10-30T08:11:28;15.27;;;10.32;;
13985;SDS011;7067;51.832;8.296;2022-10-30T08:13:54;13.23;;;10.18;;
13985;SDS011;7067;51.832;8.296;2022-10-30T08:16:19;15.43;;;9.88;;
13985;SDS011;7067;51.832;8.296;2022-10-30T08:18:44;15.70;;;10.68;;
13985;SDS011;7067;51.832;8.296;2022-10-30T08:21:10;15.45;;;9.40;;
13985;SDS011;7067;51.832;8.296;2022-10-30T08:23:35;18.40;;;9.80;;
13985;SDS011;7067;51.832;8.296;2022-10-30T08:26:01;17.90;;;9.80;;
13985;SDS011;7067;51.832;8.296;2022-10-30T08:28:26;14.68;;;10.43;;
13985;SDS011;7067;51.832;8.296;2022-10-30T08:30:51;14.82;;;9.40;;
13985;SDS011;7067;51.832;8.296;2022-10-30T08:33:17;14.20;;;9.38;;
13985;SDS011;7067;51.832;8.296;2022-10-30T08:35:45;15.02;;;8.63;;
13985;SDS011;7067;51.832;8.296;2022-10-30T08:38:14;14.02;;;8.85;;
13985;SDS011;7067;51.832;8.296;2022-10-30T08:40:40;14.85;;;9.02;;
13985;SDS011;7067;51.832;8.296;2022-10-30T08:43:06;14.20;;;8.95;;
13985;SDS011;7067;51.832;8.296;2022-10-30T08:45:32;14.82;;;8.57;;
13985;SDS011;7067;51.832;8.296;2022-10-30T08:47:58;15.75;;;8.50;;
13985;SDS011;7067;51.832;8.296;2022-10-30T08:50:24;16.10;;;9.32;;
13985;SDS011;7067;51.832;8.296;2022-10-30T08:52:49;23.05;;;10.13;;
13985;SDS011;7067;51.832;8.296;2022-10-30T08:55:15;13.73;;;9.07;;
13985;SDS011;7067;51.832;8.296;2022-10-30T08:57:40;17.85;;;8.38;;
13985;SDS011;7067;51.832;8.296;2022-10-30T09:00:06;9.57;;;7.85;;
13985;SDS011;7067;51.832;8.296;2022-10-30T09:02:32;13.85;;;7.63;;
13985;SDS011;7067;51.832;8.296;2022-10-30T09:04:58;13.05;;;8.43;;
13985;SDS011;7067;51.832;8.296;2022-10-30T09:07:24;19.83;;;8.85;;
13985;SDS011;7067;51.832;8.296;2022-10-30T09:09:49;13.75;;;7.82;;
13985;SDS011;7067;51.832;8.296;2022-10-30T09:12:14;18.85;;;7.88;;
13985;SDS011;7067;51.832;8.296;2022-10-30T09:14:40;20.00;;;8.50;;
13985;SDS011;7067;51.832;8.296;2022-10-30T09:17:06;16.00;;;7.57;;
13985;SDS011;7067;51.832;8.296;2022-10-30T09:19:31;15.10;;;7.80;;
13985;SDS011;7067;51.832;8.296;2022-10-30T09:21:56;13.27;;;7.78;;
13985;SDS011;7067;51.832;8.296;2022-10-30T09:24:22;15.02;;;7.47;;
13985;SDS011;7067;51.832;8.296;2022-10-30T09:26:47;8.98;;;7.28;;
13985;SDS011;7067;51.832;8.296;2022-10-30T09:29:12;12.98;;;7.55;;
13985;SDS011;7067;51.832;8.296;2022-10-30T09:31:38;11.68;;;6.82;;
13985;SDS011;7067;51.832;8.296;2022-10-30T09:34:03;8.88;;;6.72;;
13985;SDS011;7067;51.832;8.296;2022-10-30T09:36:29;22.38;;;7.60;;
13985;SDS011;7067;51.832;8.296;2022-10-30T09:38:56;15.40;;;7.68;;
13985;SDS011;7067;51.832;8.296;2022-10-30T09:41:35;15.25;;;8.13;;
13985;SDS011;7067;51.832;8.296;2022-10-30T09:57:17;16.30;;;8.35;;
13985;SDS011;7067;51.832;8.296;2022-10-30T10:00:06;12.82;;;6.95;;
13985;SDS011;7067;51.832;8.296;2022-10-30T10:05:12;20.55;;;7.72;;
13985;SDS011;7067;51.832;8.296;2022-10-30T10:07:59;11.65;;;7.20;;
13985;SDS011;7067;51.832;8.296;2022-10-30T10:10:47;18.00;;;8.05;;
13985;SDS011;7067;51.832;8.296;2022-10-30T10:15:50;17.73;;;9.50;;
13985;SDS011;7067;51.832;8.296;2022-10-30T10:18:31;15.18;;;7.18;;
13985;SDS011;7067;51.832;8.296;2022-10-30T10:21:00;12.65;;;6.40;;
13985;SDS011;7067;51.832;8.296;2022-10-30T10:23:33;7.95;;;6.80;;
13985;SDS011;7067;51.832;8.296;2022-10-30T10:26:05;19.67;;;6.88;;
13985;SDS011;7067;51.832;8.296;2022-10-30T10:28:45;16.02;;;7.32;;
13985;SDS011;7067;51.832;8.296;2022-10-30T10:48:25;11.68;;;5.63;;
13985;SDS011;7067;51.832;8.296;2022-10-30T10:53:49;15.13;;;6.43;;
13985;SDS011;7067;51.832;8.296;2022-10-30T10:56:18;11.75;;;6.28;;
13985;SDS011;7067;51.832;8.296;2022-10-30T11:01:16;15.10;;;6.63;;
13985;SDS011;7067;51.832;8.296;2022-10-30T11:03:49;12.98;;;6.28;;
13985;SDS011;7067;51.832;8.296;2022-10-30T11:06:20;19.08;;;7.43;;
13985;SDS011;7067;51.832;8.296;2022-10-30T11:08:48;17.95;;;7.15;;
13985;SDS011;7067;51.832;8.296;2022-10-30T11:11:16;17.02;;;6.53;;
13985;SDS011;7067;51.832;8.296;2022-10-30T11:13:42;10.43;;;4.85;;
13985;SDS011;7067;51.832;8.296;2022-10-30T11:16:13;13.27;;;5.65;;
13985;SDS011;7067;51.832;8.296;2022-10-30T11:18:41;15.10;;;5.88;;
13985;SDS011;7067;51.832;8.296;2022-10-30T11:21:12;14.57;;;6.05;;
13985;SDS011;7067;51.832;8.296;2022-10-30T11:23:44;11.00;;;6.40;;
13985;SDS011;7067;51.832;8.296;2022-10-30T11:31:30;14.10;;;5.38;;
13985;SDS011;7067;51.832;8.296;2022-10-30T11:36:46;15.25;;;6.03;;
13985;SDS011;7067;51.832;8.296;2022-10-30T11:39:31;9.82;;;5.30;;
13985;SDS011;7067;51.832;8.296;2022-10-30T11:46:59;11.48;;;6.22;;
13985;SDS011;7067;51.832;8.296;2022-10-30T11:49:26;11.52;;;5.50;;
13985;SDS011;7067;51.832;8.296;2022-10-30T11:51:55;14.02;;;5.82;;
13985;SDS011;7067;51.832;8.296;2022-10-30T11:54:21;7.72;;;5.80;;
13985;SDS011;7067;51.832;8.296;2022-10-30T11:56:47;15.20;;;5.57;;
13985;SDS011;7067;51.832;8.296;2022-10-30T11:59:16;21.58;;;6.45;;
13985;SDS011;7067;51.832;8.296;2022-10-30T12:01:56;11.77;;;5.13;;
13985;SDS011;7067;51.832;8.296;2022-10-30T12:04:23;14.23;;;5.47;;
13985;SDS011;7067;51.832;8.296;2022-10-30T12:07:05;12.05;;;5.97;;
13985;SDS011;7067;51.832;8.296;2022-10-30T12:09:35;10.93;;;4.68;;
13985;SDS011;7067;51.832;8.296;2022-10-30T12:12:18;10.65;;;4.93;;
13985;SDS011;7067;51.832;8.296;2022-10-30T12:14:46;13.50;;;5.15;;
13985;SDS011;7067;51.832;8.296;2022-10-30T12:17:13;10.40;;;4.80;;
13985;SDS011;7067;51.832;8.296;2022-10-30T12:19:42;9.30;;;5.13;;
13985;SDS011;7067;51.832;8.296;2022-10-30T12:22:09;11.57;;;5.18;;
13985;SDS011;7067;51.832;8.296;2022-10-30T12:24:36;13.18;;;4.93;;
13985;SDS011;7067;51.832;8.296;2022-10-30T12:27:03;11.05;;;4.53;;
13985;SDS011;7067;51.832;8.296;2022-10-30T12:29:57;16.55;;;6.07;;
13985;SDS011;7067;51.832;8.296;2022-10-30T12:32:27;12.82;;;4.93;;
13985;SDS011;7067;51.832;8.296;2022-10-30T12:35:08;9.00;;;5.40;;
13985;SDS011;7067;51.832;8.296;2022-10-30T12:37:53;8.15;;;4.18;;
13985;SDS011;7067;51.832;8.296;2022-10-30T12:40:26;9.20;;;4.95;;
13985;SDS011;7067;51.832;8.296;2022-10-30T12:45:46;8.85;;;5.45;;
13985;SDS011;7067;51.832;8.296;2022-10-30T12:48:21;14.60;;;5.60;;
13985;SDS011;7067;51.832;8.296;2022-10-30T12:56:01;10.02;;;5.75;;
13985;SDS011;7067;51.832;8.296;2022-10-30T12:58:43;7.70;;;5.03;;
13985;SDS011;7067;51.832;8.296;2022-10-30T13:04:15;16.83;;;5.20;;
13985;SDS011;7067;51.832;8.296;2022-10-30T13:06:48;10.07;;;5.18;;
13985;SDS011;7067;51.832;8.296;2022-10-30T13:12:15;7.80;;;3.63;;
13985;SDS011;7067;51.832;8.296;2022-10-30T13:14:44;8.80;;;4.60;;
13985;SDS011;7067;51.832;8.296;2022-10-30T13:17:13;11.45;;;4.22;;
13985;SDS011;7067;51.832;8.296;2022-10-30T13:19:39;10.27;;;4.28;;
13985;SDS011;7067;51.832;8.296;2022-10-30T13:24:59;16.75;;;4.93;;
13985;SDS011;7067;51.832;8.296;2022-10-30T13:30:12;14.13;;;5.03;;
13985;SDS011;7067;51.832;8.296;2022-10-30T13:37:50;14.07;;;4.13;;
13985;SDS011;7067;51.832;8.296;2022-10-30T13:51:22;9.40;;;4.75;;
13985;SDS011;7067;51.832;8.296;2022-10-30T13:54:01;14.45;;;5.25;;
13985;SDS011;7067;51.832;8.296;2022-10-30T13:56:29;15.00;;;4.95;;
13985;SDS011;7067;51.832;8.296;2022-10-30T13:59:01;9.85;;;4.50;;
13985;SDS011;7067;51.832;8.296;2022-10-30T14:04:04;16.67;;;5.65;;
13985;SDS011;7067;51.832;8.296;2022-10-30T14:11:51;16.63;;;6.20;;
13985;SDS011;7067;51.832;8.296;2022-10-30T14:14:28;9.82;;;5.10;;
13985;SDS011;7067;51.832;8.296;2022-10-30T14:22:30;17.63;;;4.78;;
13985;SDS011;7067;51.832;8.296;2022-10-30T14:24:56;15.95;;;4.93;;
13985;SDS011;7067;51.832;8.296;2022-10-30T14:27:32;11.80;;;5.55;;
13985;SDS011;7067;51.832;8.296;2022-10-30T14:29:57;13.98;;;5.07;;
13985;SDS011;7067;51.832;8.296;2022-10-30T14:37:15;15.18;;;6.30;;
13985;SDS011;7067;51.832;8.296;2022-10-30T14:39:45;16.20;;;6.20;;
13985;SDS011;7067;51.832;8.296;2022-10-30T14:47:33;20.20;;;7.90;;
13985;SDS011;7067;51.832;8.296;2022-10-30T14:56:01;19.42;;;8.73;;
13985;SDS011;7067;51.832;8.296;2022-10-30T14:58:34;25.95;;;10.88;;
13985;SDS011;7067;51.832;8.296;2022-10-30T15:06:36;18.20;;;9.13;;
13985;SDS011;7067;51.832;8.296;2022-10-30T15:19:55;15.98;;;7.68;;
13985;SDS011;7067;51.832;8.296;2022-10-30T15:22:23;17.17;;;8.27;;
13985;SDS011;7067;51.832;8.296;2022-10-30T15:24:50;21.70;;;8.10;;
13985;SDS011;7067;51.832;8.296;2022-10-30T15:27:16;12.82;;;7.47;;
13985;SDS011;7067;51.832;8.296;2022-10-30T15:29:43;15.45;;;10.45;;
13985;SDS011;7067;51.832;8.296;2022-10-30T15:32:14;22.40;;;10.10;;
13985;SDS011;7067;51.832;8.296;2022-10-30T15:34:51;13.63;;;9.00;;
13985;SDS011;7067;51.832;8.296;2022-10-30T15:37:29;16.70;;;9.20;;
13985;SDS011;7067;51.832;8.296;2022-10-30T15:40:08;17.02;;;8.38;;
13985;SDS011;7067;51.832;8.296;2022-10-30T15:42:43;12.38;;;7.28;;
13985;SDS011;7067;51.832;8.296;2022-10-30T15:45:22;14.25;;;7.20;;
13985;SDS011;7067;51.832;8.296;2022-10-30T15:50:33;11.27;;;6.50;;
13985;SDS011;7067;51.832;8.296;2022-10-30T15:52:59;16.55;;;6.38;;
13985;SDS011;7067;51.832;8.296;2022-10-30T15:55:28;9.57;;;7.00;;
13985;SDS011;7067;51.832;8.296;2022-10-30T15:57:59;15.88;;;7.75;;
13985;SDS011;7067;51.832;8.296;2022-10-30T16:00:28;15.20;;;7.90;;
13985;SDS011;7067;51.832;8.296;2022-10-30T16:03:02;17.38;;;7.68;;
13985;SDS011;7067;51.832;8.296;2022-10-30T16:05:30;15.60;;;9.80;;
13985;SDS011;7067;51.832;8.296;2022-10-30T16:07:59;11.82;;;9.05;;
13985;SDS011;7067;51.832;8.296;2022-10-30T16:10:26;16.42;;;9.93;;
13985;SDS011;7067;51.832;8.296;2022-10-30T16:12:56;13.00;;;8.57;;
13985;SDS011;7067;51.832;8.296;2022-10-30T16:15:32;18.38;;;9.07;;
13985;SDS011;7067;51.832;8.296;2022-10-30T16:18:01;18.23;;;9.63;;
13985;SDS011;7067;51.832;8.296;2022-10-30T16:20:28;17.05;;;10.70;;
13985;SDS011;7067;51.832;8.296;2022-10-30T16:22:53;18.15;;;9.98;;
13985;SDS011;7067;51.832;8.296;2022-10-30T16:25:19;13.77;;;9.63;;
13985;SDS011;7067;51.832;8.296;2022-10-30T16:27:45;13.65;;;9.02;;
13985;SDS011;7067;51.832;8.296;2022-10-30T16:30:13;21.33;;;9.68;;
13985;SDS011;7067;51.832;8.296;2022-10-30T16:32:40;21.67;;;10.60;;
13985;SDS011;7067;51.832;8.296;2022-10-30T16:35:09;22.80;;;10.30;;
13985;SDS011;7067;51.832;8.296;2022-10-30T16:37:35;21.05;;;10.38;;
13985;SDS011;7067;51.832;8.296;2022-10-30T16:42:38;28.02;;;10.82;;
13985;SDS011;7067;51.832;8.296;2022-10-30T16:47:36;18.58;;;10.05;;
13985;SDS011;7067;51.832;8.296;2022-10-30T16:50:03;19.85;;;10.52;;
13985;SDS011;7067;51.832;8.296;2022-10-30T16:52:33;15.40;;;10.65;;
13985;SDS011;7067;51.832;8.296;2022-10-30T16:55:08;12.05;;;10.65;;
13985;SDS011;7067;51.832;8.296;2022-10-30T16:57:43;20.30;;;12.15;;
13985;SDS011;7067;51.832;8.296;2022-10-30T17:00:28;21.48;;;12.80;;
13985;SDS011;7067;51.832;8.296;2022-10-30T17:02:54;29.88;;;12.80;;
13985;SDS011;7067;51.832;8.296;2022-10-30T17:05:30;29.38;;;12.52;;
13985;SDS011;7067;51.832;8.296;2022-10-30T17:10:56;16.80;;;11.07;;
13985;SDS011;7067;51.832;8.296;2022-10-30T17:13:30;17.40;;;12.02;;
13985;SDS011;7067;51.832;8.296;2022-10-30T17:15:56;21.65;;;13.90;;
13985;SDS011;7067;51.832;8.296;2022-10-30T17:18:26;16.83;;;12.27;;
13985;SDS011;7067;51.832;8.296;2022-10-30T17:21:05;22.25;;;13.23;;
13985;SDS011;7067;51.832;8.296;2022-10-30T17:24:00;19.88;;;12.77;;
13985;SDS011;7067;51.832;8.296;2022-10-30T17:26:26;19.85;;;11.63;;
13985;SDS011;7067;51.832;8.296;2022-10-30T17:28:52;18.92;;;14.32;;
13985;SDS011;7067;51.832;8.296;2022-10-30T17:34:31;22.10;;;12.90;;
13985;SDS011;7067;51.832;8.296;2022-10-30T17:36:34;26.35;;;16.30;;
13985;SDS011;7067;51.832;8.296;2022-10-30T17:39:00;32.15;;;16.77;;